createdAt,value
2019-03-17T00:00:25.958Z,2.10
2019-03-17T00:01:25.950Z,2.80
2019-03-17T00:02:25.953Z,3.00
2019-03-17T00:03:25.925Z,3.90
2019-03-17T00:04:31.476Z,3.30
2019-03-17T00:05:26.920Z,2.70
2019-03-17T00:06:25.900Z,2.00
2019-03-17T00:07:25.886Z,2.00
2019-03-17T00:08:25.874Z,3.10
2019-03-17T00:09:25.866Z,2.70
2019-03-17T00:10:25.854Z,3.80
2019-03-17T00:11:25.864Z,2.30
2019-03-17T00:12:25.832Z,2.80
2019-03-17T00:13:25.824Z,2.30
2019-03-17T00:14:25.812Z,3.00
2019-03-17T00:15:25.799Z,2.60
2019-03-17T00:16:25.788Z,2.60
2019-03-17T00:17:25.798Z,2.60
2019-03-17T00:18:25.767Z,2.90
2019-03-17T00:19:27.655Z,2.30
2019-03-17T00:20:25.747Z,2.80
2019-03-17T00:21:25.734Z,3.30
2019-03-17T00:22:25.724Z,3.00
2019-03-17T00:23:25.726Z,2.90
2019-03-17T00:24:25.711Z,2.60
2019-03-17T00:25:25.692Z,2.70
2019-03-17T00:26:25.679Z,2.40
2019-03-17T00:27:25.667Z,2.40
2019-03-17T00:28:25.662Z,2.10
2019-03-17T00:29:25.679Z,3.00
2019-03-17T00:30:25.637Z,2.50
2019-03-17T00:31:25.628Z,2.10
2019-03-17T00:32:25.611Z,2.70
2019-03-17T00:33:25.604Z,2.90
2019-03-17T00:34:25.595Z,3.00
2019-03-17T00:35:25.592Z,2.30
2019-03-17T00:36:25.568Z,3.10
2019-03-17T00:37:25.560Z,2.20
2019-03-17T00:38:25.550Z,3.10
2019-03-17T00:39:25.536Z,4.90
2019-03-17T00:40:25.529Z,2.90
2019-03-17T00:41:25.537Z,4.20
2019-03-17T00:42:25.506Z,3.10
2019-03-17T00:43:25.496Z,4.30
2019-03-17T00:44:25.481Z,2.40
2019-03-17T00:45:25.466Z,3.10
2019-03-17T00:46:25.458Z,4.50
2019-03-17T00:47:25.465Z,3.80
2019-03-17T00:48:25.433Z,2.50
2019-03-17T00:49:25.439Z,3.30
2019-03-17T00:50:25.411Z,2.60
2019-03-17T00:51:25.403Z,3.70
2019-03-17T00:52:25.392Z,2.50
2019-03-17T00:53:25.401Z,2.00
2019-03-17T00:54:25.374Z,2.50
2019-03-17T00:55:25.353Z,2.50
2019-03-17T00:56:25.344Z,3.80
2019-03-17T00:57:25.332Z,2.20
2019-03-17T00:58:25.322Z,4.10
2019-03-17T00:59:25.331Z,2.80
2019-03-17T01:00:25.297Z,2.50
2019-03-17T01:01:25.289Z,2.10
2019-03-17T01:02:25.279Z,3.50
2019-03-17T01:03:25.271Z,3.10
2019-03-17T01:04:25.253Z,2.60
2019-03-17T01:05:25.258Z,2.80
2019-03-17T01:06:25.235Z,3.60
2019-03-17T01:07:25.222Z,4.10
2019-03-17T01:08:25.212Z,2.60
2019-03-17T01:09:25.215Z,3.80
2019-03-17T01:10:25.191Z,3.10
2019-03-17T01:11:25.201Z,2.90
2019-03-17T01:12:25.169Z,4.30
2019-03-17T01:13:25.161Z,4.20
2019-03-17T01:14:25.152Z,3.10
2019-03-17T01:15:25.135Z,3.00
2019-03-17T01:16:25.129Z,3.20
2019-03-17T01:17:25.133Z,2.80
2019-03-17T01:18:25.104Z,3.90
2019-03-17T01:19:25.090Z,2.50
2019-03-17T01:20:25.079Z,2.50
2019-03-17T01:21:25.073Z,3.00
2019-03-17T01:22:25.060Z,2.50
2019-03-17T01:23:25.069Z,3.30
2019-03-17T01:24:25.036Z,3.40
2019-03-17T01:25:25.030Z,7.00
2019-03-17T01:26:25.016Z,3.40
2019-03-17T01:27:25.005Z,3.30
2019-03-17T01:28:24.992Z,3.70
2019-03-17T01:29:25.001Z,3.40
2019-03-17T01:30:24.965Z,2.40
2019-03-17T01:31:24.958Z,3.90
2019-03-17T01:32:24.950Z,3.80
2019-03-17T01:33:24.935Z,3.40
2019-03-17T01:34:24.938Z,3.10
2019-03-17T01:35:24.935Z,2.80
2019-03-17T01:36:24.899Z,4.20
2019-03-17T01:37:24.891Z,3.50
2019-03-17T01:38:24.881Z,4.10
2019-03-17T01:39:24.872Z,2.70
2019-03-17T01:40:24.860Z,2.70
2019-03-17T01:41:24.864Z,3.40
2019-03-17T01:42:24.833Z,4.50
2019-03-17T01:43:24.823Z,3.70
2019-03-17T01:44:24.816Z,3.30
2019-03-17T01:45:24.799Z,4.20
2019-03-17T01:46:24.790Z,2.80
2019-03-17T01:47:27.575Z,3.90
2019-03-17T01:48:24.773Z,3.10
2019-03-17T01:49:24.764Z,3.30
2019-03-17T01:50:24.744Z,4.30
2019-03-17T01:51:24.731Z,3.70
2019-03-17T01:52:24.720Z,4.10
2019-03-17T01:53:24.731Z,3.00
2019-03-17T01:54:24.698Z,4.90
2019-03-17T01:55:24.689Z,3.20
2019-03-17T01:56:24.677Z,3.50
2019-03-17T01:57:24.666Z,2.80
2019-03-17T01:58:24.661Z,4.00
2019-03-17T01:59:24.657Z,3.60
2019-03-17T02:00:24.635Z,3.10
2019-03-17T02:01:24.617Z,4.30
2019-03-17T02:02:24.607Z,2.80
2019-03-17T02:03:24.598Z,4.60
2019-03-17T02:04:24.603Z,2.50
2019-03-17T02:05:24.595Z,3.00
2019-03-17T02:06:24.563Z,3.30
2019-03-17T02:07:24.558Z,2.80
2019-03-17T02:08:24.541Z,2.90
2019-03-17T02:09:24.532Z,3.20
2019-03-17T02:10:24.523Z,3.00
2019-03-17T02:11:24.531Z,2.90
2019-03-17T02:12:24.499Z,2.70
2019-03-17T02:13:24.502Z,3.80
2019-03-17T02:14:24.479Z,4.00
2019-03-17T02:15:24.465Z,2.60
2019-03-17T02:16:24.461Z,3.50
2019-03-17T02:17:24.462Z,4.20
2019-03-17T02:18:24.433Z,4.40
2019-03-17T02:19:24.423Z,3.90
2019-03-17T02:20:24.411Z,3.10
2019-03-17T02:21:24.418Z,3.50
2019-03-17T02:22:24.389Z,3.90
2019-03-17T02:23:24.456Z,3.90
2019-03-17T02:24:24.364Z,3.00
2019-03-17T02:25:24.357Z,3.40
2019-03-17T02:26:24.345Z,3.60
2019-03-17T02:27:24.330Z,2.90
2019-03-17T02:28:24.321Z,5.60
2019-03-17T02:29:24.334Z,3.40
2019-03-17T02:30:24.297Z,4.10
2019-03-17T02:31:24.289Z,3.90
2019-03-17T02:32:24.304Z,3.20
2019-03-17T02:33:24.263Z,3.60
2019-03-17T02:34:24.265Z,6.60
2019-03-17T02:35:37.682Z,3.70
2019-03-17T02:36:25.227Z,4.50
2019-03-17T02:37:24.219Z,3.90
2019-03-17T02:38:24.209Z,2.50
2019-03-17T02:39:26.279Z,4.50
2019-03-17T02:40:24.185Z,2.40
2019-03-17T02:41:24.197Z,3.40
2019-03-17T02:42:24.176Z,3.70
2019-03-17T02:43:24.157Z,3.60
2019-03-17T02:44:24.139Z,3.00
2019-03-17T02:45:24.129Z,3.60
2019-03-17T02:46:24.119Z,3.20
2019-03-17T02:47:24.120Z,3.30
2019-03-17T02:48:24.100Z,4.00
2019-03-17T02:49:24.085Z,3.70
2019-03-17T02:50:24.074Z,3.80
2019-03-17T02:51:24.064Z,3.00
2019-03-17T02:52:24.053Z,4.10
2019-03-17T02:53:24.057Z,4.10
2019-03-17T02:54:24.041Z,4.70
2019-03-17T02:55:24.018Z,4.10
2019-03-17T02:56:24.011Z,4.00
2019-03-17T02:57:24.002Z,3.90
2019-03-17T02:58:23.983Z,3.60
2019-03-17T02:59:23.988Z,5.40
2019-03-17T03:00:23.970Z,5.50
2019-03-17T03:01:23.956Z,5.20
2019-03-17T03:02:23.937Z,3.50
2019-03-17T03:03:23.931Z,3.50
2019-03-17T03:04:23.913Z,2.60
2019-03-17T03:05:23.934Z,3.00
2019-03-17T03:06:23.896Z,3.60
2019-03-17T03:07:23.881Z,3.10
2019-03-17T03:08:23.876Z,3.50
2019-03-17T03:09:23.859Z,4.80
2019-03-17T03:10:23.859Z,5.70
2019-03-17T03:11:23.869Z,4.70
2019-03-17T03:12:23.828Z,4.20
2019-03-17T03:13:23.824Z,3.30
2019-03-17T03:14:23.811Z,3.90
2019-03-17T03:15:23.795Z,3.20
2019-03-17T03:16:23.786Z,3.30
2019-03-17T03:17:23.802Z,3.50
2019-03-17T03:18:23.762Z,4.70
2019-03-17T03:19:23.751Z,3.80
2019-03-17T03:20:23.740Z,4.10
2019-03-17T03:21:23.728Z,3.90
2019-03-17T03:22:23.716Z,4.50
2019-03-17T03:23:23.721Z,4.30
2019-03-17T03:24:23.696Z,4.70
2019-03-17T03:25:23.690Z,3.50
2019-03-17T03:26:23.681Z,3.70
2019-03-17T03:27:23.671Z,3.80
2019-03-17T03:28:23.662Z,4.00
2019-03-17T03:29:27.105Z,4.60
2019-03-17T03:30:23.724Z,3.80
2019-03-17T03:31:23.645Z,4.30
2019-03-17T03:32:23.610Z,4.00
2019-03-17T03:33:23.597Z,4.00
2019-03-17T03:34:23.592Z,2.90
2019-03-17T03:35:23.597Z,6.10
2019-03-17T03:36:23.564Z,3.40
2019-03-17T03:37:23.554Z,3.80
2019-03-17T03:38:23.539Z,4.70
2019-03-17T03:39:23.530Z,4.70
2019-03-17T03:40:23.515Z,4.20
2019-03-17T03:41:23.525Z,3.30
2019-03-17T03:42:23.494Z,3.40
2019-03-17T03:43:23.487Z,3.70
2019-03-17T03:44:23.471Z,4.60
2019-03-17T03:45:23.472Z,3.90
2019-03-17T03:46:23.460Z,3.40
2019-03-17T03:47:23.452Z,4.10
2019-03-17T03:48:23.427Z,4.80
2019-03-17T03:49:23.415Z,5.00
2019-03-17T03:50:23.405Z,4.00
2019-03-17T03:51:23.395Z,3.80
2019-03-17T03:52:23.385Z,6.30
2019-03-17T03:53:23.401Z,5.30
2019-03-17T03:54:23.360Z,3.70
2019-03-17T03:55:23.373Z,5.60
2019-03-17T03:56:23.337Z,5.20
2019-03-17T03:57:23.325Z,4.60
2019-03-17T03:58:23.327Z,7.90
2019-03-17T03:59:23.320Z,6.40
2019-03-17T04:00:23.293Z,5.90
2019-03-17T04:01:23.281Z,5.10
2019-03-17T04:02:23.273Z,7.30
2019-03-17T04:03:23.259Z,4.80
2019-03-17T04:04:23.259Z,4.90
2019-03-17T04:05:23.254Z,6.50
2019-03-17T04:06:26.943Z,5.30
2019-03-17T04:07:23.218Z,5.80
2019-03-17T04:08:23.201Z,5.50
2019-03-17T04:09:23.189Z,6.20
2019-03-17T04:10:23.177Z,6.20
2019-03-17T04:11:23.186Z,6.70
2019-03-17T04:12:23.154Z,6.40
2019-03-17T04:13:23.143Z,4.90
2019-03-17T04:14:23.137Z,6.30
2019-03-17T04:15:23.126Z,5.30
2019-03-17T04:16:23.236Z,5.20
2019-03-17T04:17:23.120Z,5.30
2019-03-17T04:18:23.089Z,5.00
2019-03-17T04:19:23.077Z,4.90
2019-03-17T04:20:23.068Z,4.50
2019-03-17T04:21:23.063Z,6.00
2019-03-17T04:22:23.053Z,5.10
2019-03-17T04:23:23.055Z,5.20
2019-03-17T04:24:23.176Z,6.30
2019-03-17T04:25:23.010Z,4.40
2019-03-17T04:26:22.999Z,5.30
2019-03-17T04:27:22.986Z,4.10
2019-03-17T04:28:22.978Z,4.70
2019-03-17T04:29:22.988Z,5.50
2019-03-17T04:30:22.949Z,5.10
2019-03-17T04:31:22.939Z,4.90
2019-03-17T04:32:22.938Z,6.80
2019-03-17T04:33:22.914Z,5.30
2019-03-17T04:34:22.905Z,5.60
2019-03-17T04:35:22.910Z,6.50
2019-03-17T04:36:22.947Z,4.90
2019-03-17T04:37:22.871Z,4.70
2019-03-17T04:38:22.861Z,7.50
2019-03-17T04:39:22.855Z,4.80
2019-03-17T04:40:22.841Z,4.80
2019-03-17T04:41:22.844Z,7.70
2019-03-17T04:42:22.816Z,7.20
2019-03-17T04:43:22.806Z,7.20
2019-03-17T04:44:22.793Z,5.90
2019-03-17T04:45:22.784Z,5.90
2019-03-17T04:46:22.769Z,5.30
2019-03-17T04:47:22.783Z,8.40
2019-03-17T04:48:22.746Z,5.50
2019-03-17T04:49:22.737Z,7.90
2019-03-17T04:50:22.756Z,8.70
2019-03-17T04:51:22.717Z,5.50
2019-03-17T04:52:22.706Z,5.70
2019-03-17T04:53:22.708Z,6.60
2019-03-17T04:54:22.684Z,6.10
2019-03-17T04:55:22.667Z,6.80
2019-03-17T04:56:22.657Z,7.40
2019-03-17T04:57:22.646Z,7.60
2019-03-17T04:58:22.641Z,6.80
2019-03-17T04:59:22.639Z,7.60
2019-03-17T05:00:22.615Z,6.80
2019-03-17T05:01:22.613Z,8.10
2019-03-17T05:02:22.590Z,8.20
2019-03-17T05:03:22.582Z,9.40
2019-03-17T05:04:22.574Z,9.10
2019-03-17T05:05:22.571Z,8.60
2019-03-17T05:06:22.551Z,6.10
2019-03-17T05:07:22.539Z,8.40
2019-03-17T05:08:22.523Z,10.10
2019-03-17T05:09:22.517Z,7.40
2019-03-17T05:10:23.190Z,7.90
2019-03-17T05:11:22.513Z,5.70
2019-03-17T05:12:22.480Z,5.70
2019-03-17T05:13:22.473Z,8.70
2019-03-17T05:14:22.455Z,8.00
2019-03-17T05:15:22.445Z,10.20
2019-03-17T05:16:22.440Z,9.20
2019-03-17T05:17:22.461Z,9.80
2019-03-17T05:18:22.420Z,7.00
2019-03-17T05:19:22.402Z,8.10
2019-03-17T05:20:22.389Z,8.10
2019-03-17T05:21:22.381Z,8.90
2019-03-17T05:22:22.369Z,7.10
2019-03-17T05:23:22.368Z,7.40
2019-03-17T05:24:22.345Z,9.70
2019-03-17T05:25:22.331Z,8.40
2019-03-17T05:26:22.325Z,8.40
2019-03-17T05:27:22.308Z,9.00
2019-03-17T05:28:23.313Z,8.60
2019-03-17T05:29:22.318Z,7.80
2019-03-17T05:30:22.279Z,8.90
2019-03-17T05:31:22.263Z,8.60
2019-03-17T05:32:22.256Z,7.60
2019-03-17T05:33:22.242Z,7.80
2019-03-17T05:34:22.232Z,7.60
2019-03-17T05:35:22.242Z,11.20
2019-03-17T05:36:22.212Z,8.40
2019-03-17T05:37:22.224Z,8.70
2019-03-17T05:38:22.191Z,7.50
2019-03-17T05:39:22.172Z,7.60
2019-03-17T05:40:22.161Z,8.20
2019-03-17T05:41:22.169Z,8.70
2019-03-17T05:42:22.141Z,8.70
2019-03-17T05:43:22.133Z,9.50
2019-03-17T05:44:22.114Z,9.40
2019-03-17T05:45:22.102Z,9.50
2019-03-17T05:46:22.094Z,9.00
2019-03-17T05:47:22.099Z,7.70
2019-03-17T05:48:22.070Z,9.00
2019-03-17T05:49:22.058Z,9.80
2019-03-17T05:50:22.050Z,9.20
2019-03-17T05:51:22.037Z,8.20
2019-03-17T05:52:22.028Z,7.40
2019-03-17T05:53:22.032Z,7.60
2019-03-17T05:54:22.006Z,8.40
2019-03-17T05:55:21.994Z,8.30
2019-03-17T05:56:21.985Z,7.50
2019-03-17T05:57:21.967Z,8.50
2019-03-17T05:58:21.956Z,5.90
2019-03-17T05:59:21.964Z,8.10
2019-03-17T06:00:21.932Z,9.10
2019-03-17T06:01:21.925Z,9.60
2019-03-17T06:02:21.925Z,6.40
2019-03-17T06:03:21.900Z,8.40
2019-03-17T06:04:21.888Z,8.90
2019-03-17T06:05:21.899Z,7.50
2019-03-17T06:06:21.865Z,7.70
2019-03-17T06:07:21.854Z,7.30
2019-03-17T06:08:21.844Z,9.40
2019-03-17T06:09:21.830Z,10.20
2019-03-17T06:10:21.823Z,7.40
2019-03-17T06:11:21.825Z,6.70
2019-03-17T06:12:21.800Z,7.00
2019-03-17T06:13:21.784Z,9.00
2019-03-17T06:14:21.776Z,7.10
2019-03-17T06:15:21.763Z,8.70
2019-03-17T06:16:21.757Z,4.80
2019-03-17T06:17:21.768Z,7.20
2019-03-17T06:18:21.730Z,7.40
2019-03-17T06:19:21.720Z,6.00
2019-03-17T06:20:21.719Z,7.70
2019-03-17T06:21:21.702Z,7.40
2019-03-17T06:22:21.752Z,6.30
2019-03-17T06:23:21.691Z,7.30
2019-03-17T06:24:21.666Z,7.20
2019-03-17T06:25:21.712Z,7.00
2019-03-17T06:26:21.641Z,8.40
2019-03-17T06:27:21.638Z,7.40
2019-03-17T06:28:21.795Z,7.00
2019-03-17T06:29:21.622Z,8.00
2019-03-17T06:30:21.594Z,7.50
2019-03-17T06:31:21.585Z,6.30
2019-03-17T06:32:21.572Z,8.20
2019-03-17T06:33:21.572Z,6.00
2019-03-17T06:34:24.254Z,7.70
2019-03-17T06:35:21.555Z,5.40
2019-03-17T06:36:21.529Z,7.20
2019-03-17T06:37:30.473Z,7.00
2019-03-17T06:38:22.509Z,6.60
2019-03-17T06:39:21.501Z,5.60
2019-03-17T06:40:21.482Z,6.80
2019-03-17T06:41:21.485Z,7.00
2019-03-17T06:42:21.456Z,7.50
2019-03-17T06:43:21.448Z,4.30
2019-03-17T06:44:21.441Z,4.70
2019-03-17T06:45:21.431Z,4.70
2019-03-17T06:46:21.413Z,4.20
2019-03-17T06:47:21.417Z,5.40
2019-03-17T06:48:21.390Z,5.00
2019-03-17T06:49:21.389Z,5.20
2019-03-17T06:50:21.395Z,4.00
2019-03-17T06:51:21.357Z,4.10
2019-03-17T06:52:21.344Z,5.70
2019-03-17T06:53:21.353Z,5.70
2019-03-17T06:54:21.320Z,5.40
2019-03-17T06:55:21.314Z,4.90
2019-03-17T06:56:21.302Z,5.60
2019-03-17T06:57:21.289Z,5.60
2019-03-17T06:58:21.282Z,4.90
2019-03-17T06:59:21.285Z,7.90
2019-03-17T07:00:21.258Z,5.50
2019-03-17T07:01:21.240Z,6.90
2019-03-17T07:02:21.234Z,5.70
2019-03-17T07:03:21.221Z,6.00
2019-03-17T07:04:21.213Z,5.60
2019-03-17T07:05:21.226Z,5.90
2019-03-17T07:06:21.184Z,6.50
2019-03-17T07:07:21.174Z,5.40
2019-03-17T07:08:21.169Z,6.60
2019-03-17T07:09:21.158Z,3.80
2019-03-17T07:10:21.188Z,5.30
2019-03-17T07:11:21.202Z,6.30
2019-03-17T07:12:21.126Z,5.80
2019-03-17T07:13:21.134Z,6.20
2019-03-17T07:14:21.095Z,6.90
2019-03-17T07:15:21.140Z,5.30
2019-03-17T07:16:21.070Z,6.00
2019-03-17T07:17:21.087Z,6.50
2019-03-17T07:18:21.053Z,6.20
2019-03-17T07:19:21.041Z,5.90
2019-03-17T07:20:21.027Z,5.30
2019-03-17T07:21:21.016Z,3.20
2019-03-17T07:22:21.009Z,4.70
2019-03-17T07:23:21.009Z,5.30
2019-03-17T07:24:20.988Z,4.00
2019-03-17T07:25:20.971Z,5.70
2019-03-17T07:26:20.960Z,3.60
2019-03-17T07:27:20.955Z,3.20
2019-03-17T07:28:20.941Z,3.80
2019-03-17T07:29:20.944Z,3.40
2019-03-17T07:30:20.916Z,3.90
2019-03-17T07:31:20.907Z,4.30
2019-03-17T07:32:20.895Z,3.50
2019-03-17T07:33:20.889Z,4.20
2019-03-17T07:34:20.869Z,3.50
2019-03-17T07:35:20.872Z,4.10
2019-03-17T07:36:20.848Z,2.20
2019-03-17T07:37:20.836Z,3.00
2019-03-17T07:38:20.824Z,2.50
2019-03-17T07:39:20.815Z,2.40
2019-03-17T07:40:20.803Z,3.10
2019-03-17T07:41:20.811Z,2.80
2019-03-17T07:42:20.788Z,3.00
2019-03-17T07:43:20.766Z,2.80
2019-03-17T07:44:20.759Z,3.20
2019-03-17T07:45:20.746Z,2.30
2019-03-17T07:46:20.734Z,3.50
2019-03-17T07:47:20.747Z,2.50
2019-03-17T07:48:20.712Z,1.90
2019-03-17T07:49:20.701Z,2.20
2019-03-17T07:50:20.687Z,2.80
2019-03-17T07:51:20.703Z,3.70
2019-03-17T07:52:20.666Z,1.50
2019-03-17T07:53:20.669Z,1.70
2019-03-17T07:54:20.642Z,2.50
2019-03-17T07:55:20.632Z,2.00
2019-03-17T07:56:20.624Z,2.80
2019-03-17T07:57:20.612Z,1.30
2019-03-17T07:58:20.595Z,2.70
2019-03-17T07:59:20.669Z,2.10
2019-03-17T08:00:31.398Z,1.90
2019-03-17T08:01:21.564Z,1.40
2019-03-17T08:02:20.563Z,2.40
2019-03-17T08:03:20.542Z,1.90
2019-03-17T08:04:20.558Z,1.50
2019-03-17T08:05:20.535Z,1.90
2019-03-17T08:06:20.508Z,1.20
2019-03-17T08:07:20.498Z,2.70
2019-03-17T08:08:20.483Z,1.60
2019-03-17T08:09:20.473Z,1.80
2019-03-17T08:10:20.463Z,1.50
2019-03-17T08:11:20.471Z,1.20
2019-03-17T08:12:20.447Z,1.30
2019-03-17T08:13:20.429Z,1.40
2019-03-17T08:14:20.420Z,1.30
2019-03-17T08:15:20.404Z,1.10
2019-03-17T08:16:20.397Z,1.50
2019-03-17T08:17:20.406Z,1.40
2019-03-17T08:18:20.371Z,1.90
2019-03-17T08:19:20.363Z,1.20
2019-03-17T08:20:20.346Z,1.40
2019-03-17T08:21:20.335Z,1.90
2019-03-17T08:22:20.334Z,1.90
2019-03-17T08:23:20.332Z,1.40
2019-03-17T08:24:20.303Z,2.20
2019-03-17T08:25:20.294Z,2.10
2019-03-17T08:26:20.278Z,1.60
2019-03-17T08:27:20.269Z,1.60
2019-03-17T08:28:20.256Z,1.90
2019-03-17T08:29:20.269Z,0.90
2019-03-17T08:30:20.235Z,1.90
2019-03-17T08:31:20.227Z,1.70
2019-03-17T08:32:20.210Z,1.10
2019-03-17T08:33:20.219Z,0.80
2019-03-17T08:34:20.193Z,1.10
2019-03-17T08:35:20.203Z,1.60
2019-03-17T08:36:20.167Z,1.20
2019-03-17T08:37:20.154Z,2.50
2019-03-17T08:38:22.186Z,1.60
2019-03-17T08:39:20.133Z,1.90
2019-03-17T08:40:20.131Z,2.90
2019-03-17T08:41:20.140Z,2.20
2019-03-17T08:42:20.104Z,1.60
2019-03-17T08:43:20.085Z,1.00
2019-03-17T08:44:20.078Z,1.50
2019-03-17T08:45:20.069Z,1.10
2019-03-17T08:46:20.053Z,1.40
2019-03-17T08:47:22.428Z,1.40
2019-03-17T08:48:20.030Z,1.40
2019-03-17T08:49:20.024Z,1.20
2019-03-17T08:50:20.010Z,1.00
2019-03-17T08:51:20.068Z,2.40
2019-03-17T08:52:19.983Z,1.10
2019-03-17T08:53:19.989Z,1.70
2019-03-17T08:54:19.963Z,1.10
2019-03-17T08:55:19.951Z,1.50
2019-03-17T08:56:19.941Z,0.80
2019-03-17T08:57:19.935Z,2.20
2019-03-17T08:58:19.916Z,0.90
2019-03-17T08:59:19.925Z,1.60
2019-03-17T09:00:19.891Z,1.00
2019-03-17T09:01:19.884Z,0.80
2019-03-17T09:02:19.870Z,1.30
2019-03-17T09:03:19.858Z,1.70
2019-03-17T09:04:19.862Z,0.80
2019-03-17T09:05:19.855Z,1.10
2019-03-17T09:06:19.823Z,1.40
2019-03-17T09:07:19.813Z,1.20
2019-03-17T09:08:19.804Z,0.80
2019-03-17T09:09:19.794Z,1.60
2019-03-17T09:10:19.780Z,1.70
2019-03-17T09:11:19.788Z,1.50
2019-03-17T09:12:19.760Z,1.40
2019-03-17T09:13:19.750Z,1.10
2019-03-17T09:14:19.759Z,0.90
2019-03-17T09:15:19.722Z,1.40
2019-03-17T09:16:19.711Z,1.10
2019-03-17T09:17:19.720Z,1.20
2019-03-17T09:18:19.692Z,1.70
2019-03-17T09:19:19.683Z,1.00
2019-03-17T09:20:19.664Z,1.60
2019-03-17T09:21:19.658Z,1.30
2019-03-17T09:22:19.642Z,1.40
2019-03-17T09:23:19.681Z,1.30
2019-03-17T09:24:19.622Z,1.10
2019-03-17T09:25:19.621Z,1.10
2019-03-17T09:26:19.600Z,1.00
2019-03-17T09:27:19.584Z,1.50
2019-03-17T09:28:19.580Z,1.20
2019-03-17T09:29:19.578Z,1.30
2019-03-17T09:30:19.554Z,1.50
2019-03-17T09:31:19.538Z,1.10
2019-03-17T09:32:19.543Z,0.90
2019-03-17T09:33:19.518Z,1.80
2019-03-17T09:34:19.509Z,1.70
2019-03-17T09:35:19.517Z,2.90
2019-03-17T09:36:19.492Z,1.50
2019-03-17T09:37:19.479Z,1.10
2019-03-17T09:38:19.469Z,1.10
2019-03-17T09:39:19.452Z,0.90
2019-03-17T09:40:19.438Z,1.40
2019-03-17T09:41:19.450Z,1.40
2019-03-17T09:42:19.419Z,1.50
2019-03-17T09:43:19.406Z,1.60
2019-03-17T09:44:19.394Z,1.30
2019-03-17T09:45:19.385Z,1.60
2019-03-17T09:46:19.376Z,1.60
2019-03-17T09:47:19.379Z,1.70
2019-03-17T09:48:19.351Z,1.50
2019-03-17T09:49:19.337Z,1.10
2019-03-17T09:50:19.331Z,1.20
2019-03-17T09:51:19.319Z,1.00
2019-03-17T09:52:19.304Z,2.00
2019-03-17T09:53:19.306Z,1.90
2019-03-17T09:54:19.283Z,2.40
2019-03-17T09:55:19.267Z,2.00
2019-03-17T09:56:19.258Z,2.00
2019-03-17T09:57:19.251Z,0.90
2019-03-17T09:58:19.235Z,1.50
2019-03-17T09:59:19.242Z,1.50
2019-03-17T10:00:19.214Z,2.30
2019-03-17T10:01:19.204Z,1.90
2019-03-17T10:02:19.193Z,2.60
2019-03-17T10:03:19.179Z,1.70
2019-03-17T10:04:19.169Z,0.90
2019-03-17T10:05:19.176Z,1.20
2019-03-17T10:06:19.148Z,1.60
2019-03-17T10:07:19.136Z,1.50
2019-03-17T10:08:19.124Z,1.70
2019-03-17T10:09:19.111Z,1.40
2019-03-17T10:10:19.106Z,1.30
2019-03-17T10:11:19.118Z,1.60
2019-03-17T10:12:19.077Z,2.10
2019-03-17T10:13:19.069Z,2.30
2019-03-17T10:14:19.053Z,0.70
2019-03-17T10:15:19.044Z,1.70
2019-03-17T10:16:19.028Z,1.10
2019-03-17T10:17:19.043Z,1.70
2019-03-17T10:18:19.009Z,1.90
2019-03-17T10:19:18.999Z,1.70
2019-03-17T10:20:18.991Z,1.80
2019-03-17T10:21:18.974Z,1.80
2019-03-17T10:22:18.965Z,1.10
2019-03-17T10:23:18.975Z,1.80
2019-03-17T10:24:18.939Z,1.30
2019-03-17T10:25:18.983Z,1.80
2019-03-17T10:26:18.915Z,1.50
2019-03-17T10:27:18.905Z,1.80
2019-03-17T10:28:18.892Z,2.30
2019-03-17T10:29:18.910Z,1.20
2019-03-17T10:30:18.872Z,1.60
2019-03-17T10:31:18.855Z,2.10
2019-03-17T10:32:18.844Z,1.80
2019-03-17T10:33:18.827Z,2.70
2019-03-17T10:34:18.820Z,2.10
2019-03-17T10:35:18.819Z,3.60
2019-03-17T10:36:18.793Z,3.00
2019-03-17T10:37:18.781Z,2.00
2019-03-17T10:38:18.768Z,2.40
2019-03-17T10:39:18.760Z,3.00
2019-03-17T10:40:18.745Z,1.90
2019-03-17T10:41:18.749Z,3.00
2019-03-17T10:42:18.774Z,1.40
2019-03-17T10:43:18.707Z,2.30
2019-03-17T10:44:18.701Z,1.50
2019-03-17T10:45:18.688Z,1.90
2019-03-17T10:46:18.674Z,2.20
2019-03-17T10:47:18.678Z,1.70
2019-03-17T10:48:18.646Z,2.00
2019-03-17T10:49:18.634Z,2.70
2019-03-17T10:50:18.712Z,3.60
2019-03-17T10:51:18.609Z,2.70
2019-03-17T10:52:18.596Z,1.80
2019-03-17T10:53:18.607Z,1.80
2019-03-17T10:54:18.574Z,2.50
2019-03-17T10:55:18.562Z,1.50
2019-03-17T10:56:18.556Z,3.10
2019-03-17T10:57:18.559Z,3.20
2019-03-17T10:58:18.527Z,2.60
2019-03-17T10:59:18.535Z,2.90
2019-03-17T11:00:18.509Z,2.20
2019-03-17T11:01:18.489Z,3.50
2019-03-17T11:02:18.478Z,2.10
2019-03-17T11:03:18.469Z,3.90
2019-03-17T11:04:18.454Z,3.00
2019-03-17T11:05:18.458Z,2.50
2019-03-17T11:06:18.430Z,2.90
2019-03-17T11:07:18.417Z,3.30
2019-03-17T11:08:18.408Z,4.10
2019-03-17T11:09:25.191Z,2.80
2019-03-17T11:10:19.398Z,2.90
2019-03-17T11:11:18.369Z,4.10
2019-03-17T11:12:18.356Z,2.70
2019-03-17T11:13:18.349Z,3.50
2019-03-17T11:14:18.335Z,4.20
2019-03-17T11:15:18.326Z,4.10
2019-03-17T11:16:18.331Z,2.50
2019-03-17T11:17:18.297Z,2.40
2019-03-17T11:18:18.289Z,2.10
2019-03-17T11:19:18.292Z,2.90
2019-03-17T11:20:18.262Z,4.70
2019-03-17T11:21:18.249Z,3.00
2019-03-17T11:22:18.259Z,2.50
2019-03-17T11:23:18.225Z,2.30
2019-03-17T11:24:18.217Z,1.90
2019-03-17T11:25:18.201Z,3.20
2019-03-17T11:26:18.190Z,2.60
2019-03-17T11:27:18.176Z,2.00
2019-03-17T11:28:18.180Z,3.10
2019-03-17T11:29:18.154Z,3.40
2019-03-17T11:30:18.141Z,2.40
2019-03-17T11:31:18.130Z,2.70
2019-03-17T11:32:18.119Z,3.20
2019-03-17T11:33:18.102Z,2.50
2019-03-17T11:34:18.112Z,2.70
2019-03-17T11:35:18.077Z,2.80
2019-03-17T11:36:18.083Z,3.90
2019-03-17T11:37:18.066Z,3.80
2019-03-17T11:38:18.045Z,2.80
2019-03-17T11:39:18.033Z,3.00
2019-03-17T11:40:18.048Z,3.00
2019-03-17T11:41:18.009Z,3.20
2019-03-17T11:42:17.995Z,2.50
2019-03-17T11:43:17.983Z,3.00
2019-03-17T11:44:17.970Z,2.50
2019-03-17T11:45:17.964Z,3.20
2019-03-17T11:46:17.967Z,3.10
2019-03-17T11:47:17.935Z,3.90
2019-03-17T11:48:17.925Z,4.40
2019-03-17T11:49:17.924Z,3.80
2019-03-17T11:50:17.905Z,3.50
2019-03-17T11:51:17.891Z,5.70
2019-03-17T11:52:17.888Z,4.90
2019-03-17T11:53:17.867Z,4.00
2019-03-17T11:54:17.855Z,3.50
2019-03-17T11:55:17.837Z,3.50
2019-03-17T11:56:17.830Z,4.30
2019-03-17T11:57:17.813Z,6.10
2019-03-17T11:58:17.823Z,4.00
2019-03-17T11:59:17.794Z,3.40
2019-03-17T12:00:17.776Z,3.70
2019-03-17T12:01:18.164Z,3.90
2019-03-17T12:02:26.486Z,4.10
2019-03-17T12:03:18.757Z,4.40
2019-03-17T12:04:17.732Z,3.60
2019-03-17T12:05:17.722Z,4.90
2019-03-17T12:06:17.720Z,3.80
2019-03-17T12:07:17.697Z,4.20
2019-03-17T12:08:17.686Z,3.30
2019-03-17T12:09:28.606Z,3.90
2019-03-17T12:10:18.657Z,3.50
2019-03-17T12:11:17.650Z,5.60
2019-03-17T12:12:17.635Z,3.90
2019-03-17T12:13:17.625Z,4.50
2019-03-17T12:14:17.615Z,5.00
2019-03-17T12:15:17.615Z,3.10
2019-03-17T12:16:17.586Z,3.80
2019-03-17T12:17:17.575Z,3.00
2019-03-17T12:18:17.573Z,4.80
2019-03-17T12:19:17.551Z,4.50
2019-03-17T12:20:17.538Z,3.30
2019-03-17T12:21:17.546Z,3.60
2019-03-17T12:22:17.513Z,4.20
2019-03-17T12:23:17.505Z,4.10
2019-03-17T12:24:17.492Z,4.20
2019-03-17T12:25:17.479Z,3.80
2019-03-17T12:26:17.465Z,3.50
2019-03-17T12:27:17.485Z,3.20
2019-03-17T12:28:17.464Z,3.80
2019-03-17T12:29:17.429Z,3.60
2019-03-17T12:30:17.417Z,3.20
2019-03-17T12:31:17.407Z,5.10
2019-03-17T12:32:17.395Z,3.30
2019-03-17T12:33:17.402Z,4.70
2019-03-17T12:34:27.770Z,3.60
2019-03-17T12:35:18.373Z,3.50
2019-03-17T12:36:19.039Z,4.60
2019-03-17T12:37:17.336Z,3.10
2019-03-17T12:38:17.326Z,2.70
2019-03-17T12:39:17.324Z,3.00
2019-03-17T12:40:17.296Z,3.60
2019-03-17T12:41:17.284Z,3.30
2019-03-17T12:42:17.277Z,2.20
2019-03-17T12:43:17.265Z,3.00
2019-03-17T12:44:17.251Z,4.30
2019-03-17T12:45:17.259Z,4.30
2019-03-17T12:46:17.232Z,4.20
2019-03-17T12:47:17.215Z,3.10
2019-03-17T12:48:17.208Z,3.10
2019-03-17T12:49:17.191Z,3.60
2019-03-17T12:50:17.192Z,2.40
2019-03-17T12:51:17.184Z,3.20
2019-03-17T12:52:17.157Z,6.40
2019-03-17T12:53:17.149Z,4.80
2019-03-17T12:54:17.133Z,4.40
2019-03-17T12:55:17.127Z,4.80
2019-03-17T12:56:17.115Z,4.20
2019-03-17T12:57:17.125Z,4.80
2019-03-17T12:58:17.096Z,3.90
2019-03-17T12:59:17.097Z,2.70
2019-03-17T13:00:17.065Z,4.40
2019-03-17T13:01:17.056Z,3.20
2019-03-17T13:02:17.043Z,3.10
2019-03-17T13:03:17.054Z,3.30
2019-03-17T13:04:17.019Z,3.30
2019-03-17T13:05:17.009Z,2.40
2019-03-17T13:06:16.997Z,2.90
2019-03-17T13:07:16.984Z,3.00
2019-03-17T13:08:16.970Z,3.40
2019-03-17T13:09:16.978Z,3.60
2019-03-17T13:10:16.970Z,2.70
2019-03-17T13:11:16.936Z,3.30
2019-03-17T13:12:16.920Z,2.60
2019-03-17T13:13:16.920Z,2.00
2019-03-17T13:14:16.901Z,3.10
2019-03-17T13:15:16.905Z,3.00
2019-03-17T13:16:16.875Z,2.00
2019-03-17T13:17:16.859Z,5.80
2019-03-17T13:18:16.861Z,9.10